Es Semara, Morocco
Current Conditions -  °F | °C
As of 2:37 AM on Saturday 25 Oct 2014 (Local Time) from GMML Reporting Station
Broken Clouds Broken Clouds  
Wind Chill: 68°   Ceiling: 600
Heat Index: 68°   Visibility: 6mi
Dew Point: 66°   Wind: 14mph
Humidity: 94%   Direction: 20°NNE
Pressure: 29.97"   Gusts: NA
Location:  26.68°N, 11.67°W
Report Text: GMML 250137Z AUTO 02012KT 9000NDV BKN006 20/19 Q1015
Loading
Personal Weather Stations






























Interactive Weather Map
Tropical Storm Tracking
New forecast layout! Learn more

10-Day Weather Forecast

Advertisements
Track Severe Weather on mobile